sensor_id;sensor_type;location;lat;lon;timestamp;pressure;altitude;pressure_sealevel;temperature;humidity
57900;BME280;60605;53.716;19.940;2024-03-17T00:00:17;100265.36;;;2.81;100.00
57900;BME280;60605;53.716;19.940;2024-03-17T00:05:41;100262.63;;;2.77;100.00
57900;BME280;60605;53.716;19.940;2024-03-17T00:10:44;100254.96;;;2.73;100.00
57900;BME280;60605;53.716;19.940;2024-03-17T00:15:52;100255.67;;;2.68;100.00
57900;BME280;60605;53.716;19.940;2024-03-17T00:20:56;100257.49;;;2.65;100.00
57900;BME280;60605;53.716;19.940;2024-03-17T00:25:59;100259.16;;;2.64;100.00
57900;BME280;60605;53.716;19.940;2024-03-17T00:31:03;100253.70;;;2.61;100.00
57900;BME280;60605;53.716;19.940;2024-03-17T00:36:06;100255.03;;;2.57;100.00
57900;BME280;60605;53.716;19.940;2024-03-17T00:41:09;100255.68;;;2.53;100.00
57900;BME280;60605;53.716;19.940;2024-03-17T00:46:12;100254.14;;;2.50;100.00
57900;BME280;60605;53.716;19.940;2024-03-17T00:51:16;100253.86;;;2.48;100.00
57900;BME280;60605;53.716;19.940;2024-03-17T00:56:19;100250.80;;;2.49;100.00
57900;BME280;60605;53.716;19.940;2024-03-17T01:01:23;100251.04;;;2.54;100.00
57900;BME280;60605;53.716;19.940;2024-03-17T01:06:27;100252.45;;;2.61;100.00
57900;BME280;60605;53.716;19.940;2024-03-17T01:11:30;100250.22;;;2.73;100.00
57900;BME280;60605;53.716;19.940;2024-03-17T01:16:33;100245.93;;;2.87;100.00
57900;BME280;60605;53.716;19.940;2024-03-17T01:21:36;100241.66;;;3.00;100.00
57900;BME280;60605;53.716;19.940;2024-03-17T01:26:40;100240.94;;;3.13;100.00
57900;BME280;60605;53.716;19.940;2024-03-17T01:31:43;100236.51;;;3.23;100.00
57900;BME280;60605;53.716;19.940;2024-03-17T01:36:46;100228.48;;;3.32;100.00
57900;BME280;60605;53.716;19.940;2024-03-17T01:41:49;100227.45;;;3.38;100.00
57900;BME280;60605;53.716;19.940;2024-03-17T01:46:52;100224.40;;;3.44;100.00
57900;BME280;60605;53.716;19.940;2024-03-17T01:51:56;100219.94;;;3.50;100.00
57900;BME280;60605;53.716;19.940;2024-03-17T01:56:59;100216.27;;;3.54;100.00
57900;BME280;60605;53.716;19.940;2024-03-17T02:02:03;100213.82;;;3.58;100.00
57900;BME280;60605;53.716;19.940;2024-03-17T02:07:35;100213.74;;;3.62;100.00
57900;BME280;60605;53.716;19.940;2024-03-17T02:12:38;100212.02;;;3.66;100.00
57900;BME280;60605;53.716;19.940;2024-03-17T02:17:41;100211.94;;;3.70;100.00
57900;BME280;60605;53.716;19.940;2024-03-17T02:22:44;100209.09;;;3.73;100.00
57900;BME280;60605;53.716;19.940;2024-03-17T02:27:48;100210.10;;;3.76;100.00
57900;BME280;60605;53.716;19.940;2024-03-17T02:32:54;100204.90;;;3.79;100.00
57900;BME280;60605;53.716;19.940;2024-03-17T02:37:57;100205.32;;;3.83;100.00
57900;BME280;60605;53.716;19.940;2024-03-17T02:43:00;100204.21;;;3.86;100.00
57900;BME280;60605;53.716;19.940;2024-03-17T02:48:03;100198.14;;;3.90;100.00
57900;BME280;60605;53.716;19.940;2024-03-17T02:53:09;100197.25;;;3.92;100.00
57900;BME280;60605;53.716;19.940;2024-03-17T02:58:12;100200.35;;;3.96;100.00
57900;BME280;60605;53.716;19.940;2024-03-17T03:03:14;100198.17;;;3.99;100.00
57900;BME280;60605;53.716;19.940;2024-03-17T03:08:18;100198.31;;;4.01;100.00
57900;BME280;60605;53.716;19.940;2024-03-17T03:13:21;100196.33;;;4.04;100.00
57900;BME280;60605;53.716;19.940;2024-03-17T03:18:24;100190.89;;;4.08;100.00
57900;BME280;60605;53.716;19.940;2024-03-17T03:23:27;100190.59;;;4.12;100.00
57900;BME280;60605;53.716;19.940;2024-03-17T03:28:31;100194.09;;;4.15;100.00
57900;BME280;60605;53.716;19.940;2024-03-17T03:33:34;100189.46;;;4.18;100.00
57900;BME280;60605;53.716;19.940;2024-03-17T03:38:38;100189.95;;;4.21;100.00
57900;BME280;60605;53.716;19.940;2024-03-17T03:43:41;100188.41;;;4.22;100.00
57900;BME280;60605;53.716;19.940;2024-03-17T03:48:45;100188.16;;;4.23;100.00
57900;BME280;60605;53.716;19.940;2024-03-17T03:53:50;100184.23;;;4.26;100.00
57900;BME280;60605;53.716;19.940;2024-03-17T03:58:53;100179.45;;;4.29;100.00
57900;BME280;60605;53.716;19.940;2024-03-17T04:03:56;100176.30;;;4.28;100.00
57900;BME280;60605;53.716;19.940;2024-03-17T04:08:59;100182.98;;;4.28;100.00
57900;BME280;60605;53.716;19.940;2024-03-17T04:14:02;100187.17;;;4.29;100.00
57900;BME280;60605;53.716;19.940;2024-03-17T04:19:05;100187.52;;;4.32;100.00
57900;BME280;60605;53.716;19.940;2024-03-17T04:24:09;100198.68;;;4.34;100.00
57900;BME280;60605;53.716;19.940;2024-03-17T04:29:12;100200.75;;;4.37;100.00
57900;BME280;60605;53.716;19.940;2024-03-17T04:34:15;100209.63;;;4.41;100.00
57900;BME280;60605;53.716;19.940;2024-03-17T04:39:19;100216.07;;;4.44;100.00
57900;BME280;60605;53.716;19.940;2024-03-17T04:44:22;100217.00;;;4.49;100.00
57900;BME280;60605;53.716;19.940;2024-03-17T04:49:25;100216.55;;;4.52;100.00
57900;BME280;60605;53.716;19.940;2024-03-17T04:54:28;100217.11;;;4.49;100.00
57900;BME280;60605;53.716;19.940;2024-03-17T04:59:36;100210.42;;;4.42;100.00
57900;BME280;60605;53.716;19.940;2024-03-17T05:04:39;100205.90;;;4.36;100.00
57900;BME280;60605;53.716;19.940;2024-03-17T05:09:42;100213.09;;;4.32;100.00
57900;BME280;60605;53.716;19.940;2024-03-17T05:14:46;100230.02;;;4.31;100.00
57900;BME280;60605;53.716;19.940;2024-03-17T05:19:49;100237.52;;;4.27;100.00
57900;BME280;60605;53.716;19.940;2024-03-17T05:24:52;100236.81;;;4.20;100.00
57900;BME280;60605;53.716;19.940;2024-03-17T05:29:56;100231.48;;;4.18;100.00
57900;BME280;60605;53.716;19.940;2024-03-17T05:34:59;100234.22;;;4.22;100.00
57900;BME280;60605;53.716;19.940;2024-03-17T05:40:03;100238.85;;;4.26;100.00
57900;BME280;60605;53.716;19.940;2024-03-17T05:45:07;100241.62;;;4.29;100.00
57900;BME280;60605;53.716;19.940;2024-03-17T05:50:13;100241.48;;;4.34;100.00
57900;BME280;60605;53.716;19.940;2024-03-17T05:55:16;100239.68;;;4.41;100.00
57900;BME280;60605;53.716;19.940;2024-03-17T06:00:20;100245.95;;;4.49;100.00
57900;BME280;60605;53.716;19.940;2024-03-17T06:05:24;100253.27;;;4.53;100.00
57900;BME280;60605;53.716;19.940;2024-03-17T06:10:27;100254.81;;;4.56;100.00
57900;BME280;60605;53.716;19.940;2024-03-17T06:15:30;100257.51;;;4.62;100.00
57900;BME280;60605;53.716;19.940;2024-03-17T06:20:33;100259.31;;;4.71;100.00
57900;BME280;60605;53.716;19.940;2024-03-17T06:25:38;100259.65;;;4.78;99.75
57900;BME280;60605;53.716;19.940;2024-03-17T06:30:45;100264.48;;;4.84;99.00
57900;BME280;60605;53.716;19.940;2024-03-17T06:35:52;100265.41;;;4.90;98.08
57900;BME280;60605;53.716;19.940;2024-03-17T06:40:55;100265.02;;;4.98;98.00
57900;BME280;60605;53.716;19.940;2024-03-17T06:45:58;100266.27;;;5.11;97.92
57900;BME280;60605;53.716;19.940;2024-03-17T06:51:02;100265.95;;;5.22;97.32
57900;BME280;60605;53.716;19.940;2024-03-17T06:56:05;100268.66;;;5.28;97.17
57900;BME280;60605;53.716;19.940;2024-03-17T07:01:09;100267.45;;;5.32;96.92
57900;BME280;60605;53.716;19.940;2024-03-17T07:06:12;100267.30;;;5.34;96.18
57900;BME280;60605;53.716;19.940;2024-03-17T07:11:15;100268.66;;;5.39;96.50
57900;BME280;60605;53.716;19.940;2024-03-17T07:16:19;100270.96;;;5.48;96.16
57900;BME280;60605;53.716;19.940;2024-03-17T07:21:28;100273.73;;;5.58;96.18
57900;BME280;60605;53.716;19.940;2024-03-17T07:26:31;100279.59;;;5.69;95.87
57900;BME280;60605;53.716;19.940;2024-03-17T07:31:34;100286.64;;;5.72;94.80
57900;BME280;60605;53.716;19.940;2024-03-17T07:36:37;100290.49;;;5.70;94.19
57900;BME280;60605;53.716;19.940;2024-03-17T07:41:42;100295.92;;;5.71;94.53
57900;BME280;60605;53.716;19.940;2024-03-17T07:46:45;100302.77;;;5.74;94.73
57900;BME280;60605;53.716;19.940;2024-03-17T07:51:48;100306.11;;;5.78;94.95
57900;BME280;60605;53.716;19.940;2024-03-17T07:56:51;100306.24;;;5.79;95.16
57900;BME280;60605;53.716;19.940;2024-03-17T08:01:56;100317.00;;;5.82;95.95
57900;BME280;60605;53.716;19.940;2024-03-17T08:07:00;100318.52;;;5.88;96.15
57900;BME280;60605;53.716;19.940;2024-03-17T08:12:03;100329.21;;;5.85;96.08
57900;BME280;60605;53.716;19.940;2024-03-17T08:17:07;100333.27;;;5.85;96.84
57900;BME280;60605;53.716;19.940;2024-03-17T08:22:10;100330.39;;;5.88;97.06
57900;BME280;60605;53.716;19.940;2024-03-17T08:27:13;100335.32;;;5.95;97.69
57900;BME280;60605;53.716;19.940;2024-03-17T08:32:17;100333.15;;;5.97;97.87
57900;BME280;60605;53.716;19.940;2024-03-17T08:37:21;100352.68;;;5.93;97.59
57900;BME280;60605;53.716;19.940;2024-03-17T08:42:40;100374.80;;;5.66;96.07
57900;BME280;60605;53.716;19.940;2024-03-17T08:47:44;100389.21;;;5.52;96.83
57900;BME280;60605;53.716;19.940;2024-03-17T08:52:48;100392.38;;;5.47;96.64
57900;BME280;60605;53.716;19.940;2024-03-17T08:57:53;100398.42;;;5.54;96.97
57900;BME280;60605;53.716;19.940;2024-03-17T09:02:56;100406.39;;;5.67;97.09
57900;BME280;60605;53.716;19.940;2024-03-17T09:08:00;100416.92;;;5.62;96.34
57900;BME280;60605;53.716;19.940;2024-03-17T09:13:04;100423.63;;;5.46;95.14
57900;BME280;60605;53.716;19.940;2024-03-17T09:18:07;100427.39;;;5.50;95.26
57900;BME280;60605;53.716;19.940;2024-03-17T09:23:12;100437.63;;;5.51;93.02
57900;BME280;60605;53.716;19.940;2024-03-17T09:28:17;100448.27;;;5.25;92.13
57900;BME280;60605;53.716;19.940;2024-03-17T09:33:21;100455.11;;;5.19;93.50
57900;BME280;60605;53.716;19.940;2024-03-17T09:38:24;100461.13;;;5.26;93.03
57900;BME280;60605;53.716;19.940;2024-03-17T09:43:28;100469.96;;;5.45;92.39
57900;BME280;60605;53.716;19.940;2024-03-17T09:48:31;100470.02;;;5.63;90.79
57900;BME280;60605;53.716;19.940;2024-03-17T09:53:35;100474.92;;;5.82;89.75
57900;BME280;60605;53.716;19.940;2024-03-17T09:58:39;100486.15;;;5.77;88.25
57900;BME280;60605;53.716;19.940;2024-03-17T10:08:46;100497.75;;;5.66;87.19
57900;BME280;60605;53.716;19.940;2024-03-17T10:14:00;100503.17;;;5.91;85.29
57900;BME280;60605;53.716;19.940;2024-03-17T10:19:08;100515.17;;;6.05;84.15
57900;BME280;60605;53.716;19.940;2024-03-17T10:24:14;100516.69;;;6.30;83.68
57900;BME280;60605;53.716;19.940;2024-03-17T10:29:33;100517.05;;;6.90;81.79
57900;BME280;60605;53.716;19.940;2024-03-17T10:34:38;100518.61;;;7.34;77.50
57900;BME280;60605;53.716;19.940;2024-03-17T10:39:43;100526.88;;;7.68;75.98
57900;BME280;60605;53.716;19.940;2024-03-17T10:44:48;100539.37;;;7.27;74.94
57900;BME280;60605;53.716;19.940;2024-03-17T10:49:53;100543.92;;;6.76;75.50
57900;BME280;60605;53.716;19.940;2024-03-17T10:54:58;100555.79;;;6.38;74.90
57900;BME280;60605;53.716;19.940;2024-03-17T11:00:06;100558.39;;;5.94;75.77
57900;BME280;60605;53.716;19.940;2024-03-17T11:05:26;100564.42;;;5.85;76.98
57900;BME280;60605;53.716;19.940;2024-03-17T11:10:34;100561.05;;;5.75;76.05
57900;BME280;60605;53.716;19.940;2024-03-17T11:15:41;100567.64;;;5.58;76.42
57900;BME280;60605;53.716;19.940;2024-03-17T11:26:11;100573.45;;;5.96;76.11
57900;BME280;60605;53.716;19.940;2024-03-17T11:31:35;100581.15;;;6.11;75.28
57900;BME280;60605;53.716;19.940;2024-03-17T11:36:40;100599.23;;;5.93;74.15
57900;BME280;60605;53.716;19.940;2024-03-17T11:41:44;100600.97;;;5.65;74.03
57900;BME280;60605;53.716;19.940;2024-03-17T11:46:57;100598.11;;;5.56;74.06
57900;BME280;60605;53.716;19.940;2024-03-17T11:52:14;100601.73;;;5.57;73.96
57900;BME280;60605;53.716;19.940;2024-03-17T11:57:21;100601.88;;;5.62;74.08
57900;BME280;60605;53.716;19.940;2024-03-17T12:02:31;100599.23;;;5.72;74.57
57900;BME280;60605;53.716;19.940;2024-03-17T12:07:38;100602.73;;;5.89;74.29
57900;BME280;60605;53.716;19.940;2024-03-17T12:12:46;100608.31;;;6.04;74.55
57900;BME280;60605;53.716;19.940;2024-03-17T12:17:53;100605.78;;;6.14;74.72
57900;BME280;60605;53.716;19.940;2024-03-17T12:22:56;100605.89;;;6.19;73.84
57900;BME280;60605;53.716;19.940;2024-03-17T12:28:00;100603.73;;;6.29;71.49
57900;BME280;60605;53.716;19.940;2024-03-17T12:33:05;100607.01;;;6.28;68.43
57900;BME280;60605;53.716;19.940;2024-03-17T12:38:21;100604.98;;;6.33;69.68
57900;BME280;60605;53.716;19.940;2024-03-17T12:43:26;100609.19;;;6.50;70.38
57900;BME280;60605;53.716;19.940;2024-03-17T12:48:30;100615.48;;;6.42;70.43
57900;BME280;60605;53.716;19.940;2024-03-17T12:53:33;100618.61;;;6.13;69.57
57900;BME280;60605;53.716;19.940;2024-03-17T12:58:36;100610.34;;;5.80;70.35
57900;BME280;60605;53.716;19.940;2024-03-17T13:04:04;100610.61;;;5.57;71.79
57900;BME280;60605;53.716;19.940;2024-03-17T13:09:11;100609.80;;;5.56;73.11
57900;BME280;60605;53.716;19.940;2024-03-17T13:14:14;100612.99;;;5.51;73.18
57900;BME280;60605;53.716;19.940;2024-03-17T13:19:20;100619.04;;;5.24;73.28
57900;BME280;60605;53.716;19.940;2024-03-17T13:24:25;100620.71;;;5.06;73.56
57900;BME280;60605;53.716;19.940;2024-03-17T13:29:28;100629.09;;;5.10;73.54
57900;BME280;60605;53.716;19.940;2024-03-17T13:34:31;100632.87;;;4.87;73.39
57900;BME280;60605;53.716;19.940;2024-03-17T13:39:35;100650.59;;;4.39;75.34
57900;BME280;60605;53.716;19.940;2024-03-17T13:44:39;100653.60;;;3.92;77.71
57900;BME280;60605;53.716;19.940;2024-03-17T13:49:42;100653.63;;;3.71;79.45
57900;BME280;60605;53.716;19.940;2024-03-17T13:54:46;100656.86;;;3.61;80.69
57900;BME280;60605;53.716;19.940;2024-03-17T13:59:50;100665.77;;;3.71;81.81
57900;BME280;60605;53.716;19.940;2024-03-17T14:04:55;100663.08;;;3.85;81.56
57900;BME280;60605;53.716;19.940;2024-03-17T14:09:59;100662.59;;;4.00;81.25
57900;BME280;60605;53.716;19.940;2024-03-17T14:15:03;100658.33;;;4.09;80.46
57900;BME280;60605;53.716;19.940;2024-03-17T14:20:13;100654.36;;;3.99;79.85
57900;BME280;60605;53.716;19.940;2024-03-17T14:25:17;100655.85;;;3.93;80.05
57900;BME280;60605;53.716;19.940;2024-03-17T14:30:21;100655.46;;;3.90;80.38
57900;BME280;60605;53.716;19.940;2024-03-17T14:35:24;100658.77;;;3.83;80.64
57900;BME280;60605;53.716;19.940;2024-03-17T14:40:29;100655.06;;;3.78;81.66
57900;BME280;60605;53.716;19.940;2024-03-17T14:45:33;100664.41;;;3.73;82.05
57900;BME280;60605;53.716;19.940;2024-03-17T14:50:37;100665.05;;;3.58;82.46
57900;BME280;60605;53.716;19.940;2024-03-17T14:55:42;100672.10;;;3.44;81.54
57900;BME280;60605;53.716;19.940;2024-03-17T15:00:46;100671.02;;;3.28;81.55
57900;BME280;60605;53.716;19.940;2024-03-17T15:05:49;100679.13;;;3.15;81.84
57900;BME280;60605;53.716;19.940;2024-03-17T15:10:55;100681.65;;;3.03;82.62
57900;BME280;60605;53.716;19.940;2024-03-17T15:15:59;100679.73;;;2.91;83.39
57900;BME280;60605;53.716;19.940;2024-03-17T15:21:07;100678.85;;;2.86;84.39
57900;BME280;60605;53.716;19.940;2024-03-17T15:26:10;100677.91;;;2.81;85.08
57900;BME280;60605;53.716;19.940;2024-03-17T15:31:14;100680.29;;;2.74;85.56
57900;BME280;60605;53.716;19.940;2024-03-17T15:36:18;100677.58;;;2.63;86.04
57900;BME280;60605;53.716;19.940;2024-03-17T15:41:22;100674.20;;;2.49;87.29
57900;BME280;60605;53.716;19.940;2024-03-17T15:46:26;100678.37;;;2.30;88.35
57900;BME280;60605;53.716;19.940;2024-03-17T15:51:30;100674.89;;;2.17;89.41
57900;BME280;60605;53.716;19.940;2024-03-17T15:56:34;100674.25;;;2.10;90.73
57900;BME280;60605;53.716;19.940;2024-03-17T16:01:39;100678.45;;;2.05;91.66
57900;BME280;60605;53.716;19.940;2024-03-17T16:06:43;100683.16;;;1.97;92.24
57900;BME280;60605;53.716;19.940;2024-03-17T16:11:46;100682.00;;;1.90;92.86
57900;BME280;60605;53.716;19.940;2024-03-17T16:16:50;100679.75;;;1.83;93.39
57900;BME280;60605;53.716;19.940;2024-03-17T16:21:53;100677.84;;;1.76;94.18
57900;BME280;60605;53.716;19.940;2024-03-17T16:26:57;100675.23;;;1.69;94.76
57900;BME280;60605;53.716;19.940;2024-03-17T16:32:01;100671.89;;;1.63;95.21
57900;BME280;60605;53.716;19.940;2024-03-17T16:37:05;100679.97;;;1.57;95.99
57900;BME280;60605;53.716;19.940;2024-03-17T16:42:08;100678.66;;;1.49;96.88
57900;BME280;60605;53.716;19.940;2024-03-17T16:52:34;100681.33;;;1.36;98.71
57900;BME280;60605;53.716;19.940;2024-03-17T16:57:38;100685.27;;;1.32;99.32
57900;BME280;60605;53.716;19.940;2024-03-17T17:02:42;100689.73;;;1.27;99.93
57900;BME280;60605;53.716;19.940;2024-03-17T17:07:46;100695.14;;;1.22;100.00
57900;BME280;60605;53.716;19.940;2024-03-17T17:12:50;100695.55;;;1.18;100.00
57900;BME280;60605;53.716;19.940;2024-03-17T17:17:54;100698.11;;;1.13;100.00
57900;BME280;60605;53.716;19.940;2024-03-17T17:23:00;100700.85;;;1.08;100.00
57900;BME280;60605;53.716;19.940;2024-03-17T17:28:03;100701.34;;;1.05;100.00
57900;BME280;60605;53.716;19.940;2024-03-17T17:33:07;100697.96;;;1.03;100.00
57900;BME280;60605;53.716;19.940;2024-03-17T17:38:10;100696.80;;;1.01;100.00
57900;BME280;60605;53.716;19.940;2024-03-17T17:43:13;100695.23;;;1.01;100.00
57900;BME280;60605;53.716;19.940;2024-03-17T17:48:17;100693.06;;;1.02;100.00
57900;BME280;60605;53.716;19.940;2024-03-17T17:53:20;100689.50;;;1.03;100.00
57900;BME280;60605;53.716;19.940;2024-03-17T17:58:23;100688.56;;;1.04;100.00
57900;BME280;60605;53.716;19.940;2024-03-17T18:03:29;100688.35;;;1.05;100.00
57900;BME280;60605;53.716;19.940;2024-03-17T18:08:32;100683.96;;;1.05;100.00
57900;BME280;60605;53.716;19.940;2024-03-17T18:13:36;100691.05;;;1.04;100.00
57900;BME280;60605;53.716;19.940;2024-03-17T18:18:39;100687.89;;;1.00;100.00
57900;BME280;60605;53.716;19.940;2024-03-17T18:23:43;100685.81;;;0.96;100.00
57900;BME280;60605;53.716;19.940;2024-03-17T18:28:47;100687.13;;;0.95;100.00
57900;BME280;60605;53.716;19.940;2024-03-17T18:33:55;100690.34;;;0.94;100.00
57900;BME280;60605;53.716;19.940;2024-03-17T18:39:00;100689.64;;;0.94;100.00
57900;BME280;60605;53.716;19.940;2024-03-17T18:44:03;100685.73;;;0.95;100.00
57900;BME280;60605;53.716;19.940;2024-03-17T18:49:06;100687.98;;;0.96;100.00
57900;BME280;60605;53.716;19.940;2024-03-17T18:54:13;100685.65;;;0.96;100.00
57900;BME280;60605;53.716;19.940;2024-03-17T18:59:16;100687.02;;;0.97;100.00
57900;BME280;60605;53.716;19.940;2024-03-17T19:04:22;100685.09;;;0.97;100.00
57900;BME280;60605;53.716;19.940;2024-03-17T19:09:26;100687.03;;;0.97;100.00
57900;BME280;60605;53.716;19.940;2024-03-17T19:14:32;100688.95;;;0.97;100.00
57900;BME280;60605;53.716;19.940;2024-03-17T19:19:35;100687.55;;;0.97;100.00
57900;BME280;60605;53.716;19.940;2024-03-17T19:24:41;100685.98;;;0.97;100.00
57900;BME280;60605;53.716;19.940;2024-03-17T19:29:44;100685.95;;;0.97;100.00
57900;BME280;60605;53.716;19.940;2024-03-17T19:34:50;100683.48;;;0.97;100.00
57900;BME280;60605;53.716;19.940;2024-03-17T19:39:54;100681.02;;;0.97;100.00
57900;BME280;60605;53.716;19.940;2024-03-17T19:44:58;100678.92;;;0.97;100.00
57900;BME280;60605;53.716;19.940;2024-03-17T19:50:01;100681.72;;;0.98;100.00
57900;BME280;60605;53.716;19.940;2024-03-17T19:55:04;100682.23;;;0.98;100.00
57900;BME280;60605;53.716;19.940;2024-03-17T20:00:08;100677.81;;;0.98;100.00
57900;BME280;60605;53.716;19.940;2024-03-17T20:05:12;100679.95;;;0.98;100.00
57900;BME280;60605;53.716;19.940;2024-03-17T20:10:15;100679.28;;;0.97;100.00
57900;BME280;60605;53.716;19.940;2024-03-17T20:15:20;100675.91;;;0.98;100.00
57900;BME280;60605;53.716;19.940;2024-03-17T20:20:25;100668.05;;;0.97;100.00
57900;BME280;60605;53.716;19.940;2024-03-17T20:25:31;100670.73;;;0.96;100.00
57900;BME280;60605;53.716;19.940;2024-03-17T20:30:35;100672.30;;;0.96;100.00
57900;BME280;60605;53.716;19.940;2024-03-17T20:35:38;100668.21;;;0.97;100.00
57900;BME280;60605;53.716;19.940;2024-03-17T20:40:42;100658.40;;;0.96;100.00
57900;BME280;60605;53.716;19.940;2024-03-17T20:45:45;100652.35;;;0.94;100.00
57900;BME280;60605;53.716;19.940;2024-03-17T20:50:52;100645.23;;;0.93;100.00
57900;BME280;60605;53.716;19.940;2024-03-17T20:55:55;100644.41;;;0.92;100.00
57900;BME280;60605;53.716;19.940;2024-03-17T21:00:58;100639.34;;;0.91;100.00
57900;BME280;60605;53.716;19.940;2024-03-17T21:06:03;100633.44;;;0.90;100.00
57900;BME280;60605;53.716;19.940;2024-03-17T21:11:07;100624.11;;;0.90;100.00
57900;BME280;60605;53.716;19.940;2024-03-17T21:16:11;100619.69;;;0.91;100.00
57900;BME280;60605;53.716;19.940;2024-03-17T21:21:14;100621.27;;;0.91;100.00
57900;BME280;60605;53.716;19.940;2024-03-17T21:26:18;100619.18;;;0.90;100.00
57900;BME280;60605;53.716;19.940;2024-03-17T21:31:22;100615.82;;;0.90;100.00
57900;BME280;60605;53.716;19.940;2024-03-17T21:36:26;100611.80;;;0.90;100.00
57900;BME280;60605;53.716;19.940;2024-03-17T21:41:29;100612.50;;;0.90;100.00
57900;BME280;60605;53.716;19.940;2024-03-17T21:46:33;100607.75;;;0.90;100.00
57900;BME280;60605;53.716;19.940;2024-03-17T21:51:38;100609.10;;;0.91;100.00
57900;BME280;60605;53.716;19.940;2024-03-17T21:56:41;100604.64;;;0.92;100.00
57900;BME280;60605;53.716;19.940;2024-03-17T22:01:44;100598.08;;;0.93;100.00
57900;BME280;60605;53.716;19.940;2024-03-17T22:06:50;100597.77;;;0.92;100.00
57900;BME280;60605;53.716;19.940;2024-03-17T22:11:53;100590.23;;;0.92;100.00
57900;BME280;60605;53.716;19.940;2024-03-17T22:16:57;100587.17;;;0.91;100.00
57900;BME280;60605;53.716;19.940;2024-03-17T22:22:02;100585.23;;;0.90;100.00
57900;BME280;60605;53.716;19.940;2024-03-17T22:27:07;100586.45;;;0.90;100.00
57900;BME280;60605;53.716;19.940;2024-03-17T22:32:10;100587.63;;;0.91;100.00
57900;BME280;60605;53.716;19.940;2024-03-17T22:37:13;100583.40;;;0.92;100.00
57900;BME280;60605;53.716;19.940;2024-03-17T22:42:17;100574.62;;;0.92;100.00
57900;BME280;60605;53.716;19.940;2024-03-17T22:47:20;100563.86;;;0.92;100.00
57900;BME280;60605;53.716;19.940;2024-03-17T22:52:23;100566.27;;;0.93;100.00
57900;BME280;60605;53.716;19.940;2024-03-17T22:57:26;100562.17;;;0.94;100.00
57900;BME280;60605;53.716;19.940;2024-03-17T23:02:30;100556.52;;;0.94;100.00
57900;BME280;60605;53.716;19.940;2024-03-17T23:07:33;100554.42;;;0.94;100.00
57900;BME280;60605;53.716;19.940;2024-03-17T23:12:36;100551.04;;;0.95;100.00
57900;BME280;60605;53.716;19.940;2024-03-17T23:17:39;100546.23;;;0.96;100.00
57900;BME280;60605;53.716;19.940;2024-03-17T23:22:49;100545.33;;;0.96;100.00
57900;BME280;60605;53.716;19.940;2024-03-17T23:27:52;100544.48;;;0.96;100.00
57900;BME280;60605;53.716;19.940;2024-03-17T23:32:56;100541.73;;;0.95;100.00
57900;BME280;60605;53.716;19.940;2024-03-17T23:37:59;100539.60;;;0.95;100.00
57900;BME280;60605;53.716;19.940;2024-03-17T23:43:03;100538.75;;;0.95;100.00
57900;BME280;60605;53.716;19.940;2024-03-17T23:48:07;100534.40;;;0.94;100.00
57900;BME280;60605;53.716;19.940;2024-03-17T23:53:10;100531.77;;;0.94;100.00
57900;BME280;60605;53.716;19.940;2024-03-17T23:58:13;100531.23;;;0.94;100.00
